createdAt,value
2022-09-09T00:00:00.000Z,1.13
2022-09-09T00:15:00.000Z,1.29
2022-09-09T00:30:00.000Z,1.33
2022-09-09T01:00:00.000Z,1
2022-09-09T01:00:00.000Z,1.44
2022-09-09T01:15:00.000Z,1.21
2022-09-09T01:30:00.000Z,1.15
2022-09-09T01:45:00.000Z,1.24
2022-09-09T02:00:00.000Z,1.2
2022-09-09T02:15:00.000Z,1.51
2022-09-09T02:30:00.000Z,1.27
2022-09-09T02:45:00.000Z,1.26
2022-09-09T03:00:00.000Z,1.19
2022-09-09T03:15:00.000Z,1.32
2022-09-09T03:30:00.000Z,1.53
2022-09-09T03:45:00.000Z,1.34
2022-09-09T04:00:00.000Z,1.68
2022-09-09T04:15:00.000Z,1.58
2022-09-09T04:30:00.000Z,1.28
2022-09-09T04:45:00.000Z,1.38
2022-09-09T05:00:00.000Z,1.25
2022-09-09T05:15:00.000Z,1.26
2022-09-09T05:30:00.000Z,1.32
2022-09-09T05:45:00.000Z,1.47
2022-09-09T06:00:00.000Z,1.64
2022-09-09T06:15:00.000Z,1.68
2022-09-09T06:30:00.000Z,1.66
2022-09-09T06:45:00.000Z,1.56
2022-09-09T07:00:00.000Z,1.36
2022-09-09T07:15:00.000Z,1.55
2022-09-09T07:30:00.000Z,1.54
2022-09-09T07:45:00.000Z,1.46
2022-09-09T08:00:00.000Z,1.52
2022-09-09T08:15:00.000Z,2.34
2022-09-09T08:30:00.000Z,1.59
2022-09-09T08:45:00.000Z,1.54
2022-09-09T09:00:00.000Z,1.86
2022-09-09T09:15:00.000Z,2.89
2022-09-09T09:30:00.000Z,1.68
2022-09-09T09:45:00.000Z,2.24
2022-09-09T10:00:00.000Z,2.51
2022-09-09T10:15:00.000Z,2.29
2022-09-09T10:30:00.000Z,2.27
2022-09-09T10:45:00.000Z,2.47
2022-09-09T11:00:00.000Z,3.16
2022-09-09T11:15:00.000Z,2.16
2022-09-09T11:30:00.000Z,2.64
2022-09-09T11:45:00.000Z,2.86
2022-09-09T12:00:00.000Z,3.84
2022-09-09T12:15:00.000Z,3.52
2022-09-09T12:30:00.000Z,3.88
2022-09-09T12:45:00.000Z,10.73
2022-09-09T13:00:00.000Z,4.27
2022-09-09T13:15:00.000Z,3.34
2022-09-09T13:30:00.000Z,4.16
2022-09-09T13:45:00.000Z,3.56
2022-09-09T14:00:00.000Z,3.31
2022-09-09T14:15:00.000Z,2.47
2022-09-09T14:30:00.000Z,3.93
2022-09-09T14:45:00.000Z,5.38
2022-09-09T15:00:00.000Z,4.38
2022-09-09T15:15:00.000Z,3.25
2022-09-09T15:30:00.000Z,3.39
2022-09-09T15:45:00.000Z,3.35
2022-09-09T16:00:00.000Z,3.92
2022-09-09T16:15:00.000Z,4.08
2022-09-09T16:30:00.000Z,3.85
2022-09-09T16:45:00.000Z,2.24
2022-09-09T17:00:00.000Z,2.31
2022-09-09T17:15:00.000Z,3.87
2022-09-09T17:30:00.000Z,4.07
2022-09-09T17:45:00.000Z,4.04
2022-09-09T18:00:00.000Z,4.09
2022-09-09T18:15:00.000Z,4.78
2022-09-09T18:30:00.000Z,3.82
2022-09-09T18:45:00.000Z,3.6
2022-09-09T19:00:00.000Z,3.33
2022-09-09T19:15:00.000Z,3.25
2022-09-09T19:30:00.000Z,2.16
2022-09-09T19:45:00.000Z,2.74
2022-09-09T20:00:00.000Z,1.81
2022-09-09T20:15:00.000Z,2.61
2022-09-09T20:30:00.000Z,2.55
2022-09-09T20:45:00.000Z,3.29
2022-09-09T21:00:00.000Z,1.94
2022-09-09T21:15:00.000Z,1.91
2022-09-09T21:30:00.000Z,1.86
2022-09-09T21:45:00.000Z,1.92
2022-09-09T22:00:00.000Z,4.32
2022-09-09T22:15:00.000Z,4.59
2022-09-09T22:30:00.000Z,4.84
2022-09-09T22:45:00.000Z,4.28
2022-09-09T23:00:00.000Z,3.66
2022-09-09T23:15:00.000Z,4.06
2022-09-09T23:30:00.000Z,3.53
2022-09-09T23:45:00.000Z,3.85
